Terminal Aerodrome Forecast
Issued by NWS Sterling, VA

Current Version | Previous Version | Text Only | Print | Product List | Glossary Off
Versions: 1 2 3 4 5 6 7 8 9 10 11 12 13

000
FTUS41 KLWX 151700
TAFMRB
TAF
KMRB 151729Z 1518/1618 16004KT P6SM SCT050 SCT250
     FM152300 VRB03KT P6SM SCT050 BKN200
     FM160700 VRB03KT 5SM BR BKN050
     FM161300 31006KT P6SM BKN050
     FM161500 32010G18KT P6SM SCT050=

USA.gov is the U.S. government's official web portal to all federal, state and local government web resources and services.